createdAt,value
2022-08-12T00:01:18.935Z,95584.28
2022-08-12T00:04:45.841Z,95577.16
2022-08-12T00:07:52.072Z,95574.00
2022-08-12T00:10:58.732Z,95574.00
2022-08-12T00:14:13.317Z,95576.34
2022-08-12T00:17:18.451Z,95578.75
2022-08-12T00:20:24.941Z,95581.88
2022-08-12T00:23:35.849Z,95579.09
2022-08-12T00:26:41.883Z,95573.19
2022-08-12T00:29:48.143Z,95575.56
2022-08-12T00:32:56.604Z,95576.34
2022-08-12T00:36:01.089Z,95575.53
2022-08-12T00:39:07.248Z,95566.84
2022-08-12T00:42:13.502Z,95566.06
2022-08-12T00:44:59.532Z,95552.66
2022-08-12T00:47:45.497Z,95557.38
2022-08-12T00:50:32.445Z,95555.03
2022-08-12T00:53:19.925Z,95545.56
2022-08-12T00:56:07.627Z,95551.06
2022-08-12T00:58:53.717Z,95534.94
2022-08-12T01:02:02.471Z,95528.22
2022-08-12T01:05:22.066Z,95545.53
2022-08-12T01:08:27.619Z,95553.41
2022-08-12T01:11:32.207Z,95544.72
2022-08-12T01:14:20.952Z,95547.91
2022-08-12T01:17:07.797Z,95547.09
2022-08-12T01:19:55.967Z,95552.22
2022-08-12T01:23:20.902Z,95542.38
2022-08-12T01:26:10.775Z,95554.19
2022-08-12T01:28:58.867Z,95549.47
2022-08-12T01:31:47.221Z,95553.41
2022-08-12T01:34:38.913Z,95556.16
2022-08-12T01:37:26.385Z,95557.75
2022-08-12T01:40:36.876Z,95555.00
2022-08-12T01:43:27.629Z,95545.50
2022-08-12T01:46:29.787Z,95542.38
2022-08-12T01:49:17.549Z,95542.38
2022-08-12T01:52:15.288Z,95537.22
2022-08-12T01:55:10.136Z,95532.50
2022-08-12T01:58:22.493Z,95536.03
2022-08-12T02:01:20.609Z,95530.13
2022-08-12T02:04:34.191Z,95523.41
2022-08-12T02:07:47.519Z,95525.78
2022-08-12T02:11:11.419Z,95518.69
2022-08-12T02:14:19.136Z,95523.41
2022-08-12T02:17:20.072Z,95523.38
2022-08-12T02:20:21.910Z,95524.97
2022-08-12T02:23:10.527Z,95520.25
2022-08-12T02:25:59.665Z,95515.91
2022-08-12T02:28:46.382Z,95516.69
2022-08-12T02:31:32.329Z,95505.25
2022-08-12T02:34:18.909Z,95508.00
2022-08-12T02:37:05.215Z,95518.25
2022-08-12T02:39:52.011Z,95525.72
2022-08-12T02:42:39.734Z,95521.78
2022-08-12T02:45:38.404Z,95519.44
2022-08-12T02:48:48.899Z,95524.94
2022-08-12T02:51:39.318Z,95524.94
2022-08-12T02:54:26.392Z,95517.84
2022-08-12T02:57:13.402Z,95525.31
2022-08-12T03:00:02.626Z,95519.41
2022-08-12T03:02:51.862Z,95524.13
2022-08-12T03:05:45.365Z,95528.06
2022-08-12T03:08:37.138Z,95535.13
2022-08-12T03:11:42.134Z,95525.66
2022-08-12T03:14:35.125Z,95524.88
2022-08-12T03:17:46.468Z,95526.41
2022-08-12T03:20:59.411Z,95518.53
2022-08-12T03:23:46.806Z,95518.53
2022-08-12T03:26:35.990Z,95516.09
2022-08-12T03:29:28.658Z,95519.25
2022-08-12T03:32:35.799Z,95524.00
2022-08-12T03:35:41.174Z,95518.47
2022-08-12T03:38:29.670Z,95523.19
2022-08-12T03:41:40.889Z,95522.38
2022-08-12T03:44:58.052Z,95516.88
2022-08-12T03:48:18.726Z,95516.84
2022-08-12T03:51:23.876Z,95512.91
2022-08-12T03:54:28.420Z,95515.69
2022-08-12T03:57:33.318Z,95512.50
2022-08-12T04:00:26.028Z,95513.69
2022-08-12T04:03:30.787Z,95511.34
2022-08-12T04:06:17.536Z,95503.03
2022-08-12T04:09:23.254Z,95506.22
2022-08-12T04:12:29.974Z,95505.81
2022-08-12T04:15:28.983Z,95514.47
2022-08-12T04:18:18.589Z,95512.91
2022-08-12T04:21:08.969Z,95509.72
2022-08-12T04:23:55.636Z,95521.56
2022-08-12T04:26:41.569Z,95519.59
2022-08-12T04:30:29.308Z,95527.09
2022-08-12T04:32:37.636Z,95534.19
2022-08-12T04:35:26.068Z,95532.59
2022-08-12T04:38:12.022Z,95528.63
2022-08-12T04:40:58.013Z,95538.09
2022-08-12T04:44:00.164Z,95530.97
2022-08-12T04:46:47.898Z,95530.97
2022-08-12T04:49:34.838Z,95530.16
2022-08-12T04:52:21.781Z,95527.78
2022-08-12T04:55:10.416Z,95536.47
2022-08-12T04:57:56.477Z,95536.09
2022-08-12T05:00:42.469Z,95545.94
2022-08-12T05:03:28.659Z,95536.88
2022-08-12T05:06:33.225Z,95534.13
2022-08-12T05:09:19.622Z,95551.47
2022-08-12T05:12:08.359Z,95540.47
2022-08-12T05:14:54.570Z,95543.63
2022-08-12T05:17:43.966Z,95539.69
2022-08-12T05:20:30.879Z,95541.66
2022-08-12T05:23:20.155Z,95542.03
2022-08-12T05:26:06.592Z,95535.72
2022-08-12T05:28:54.393Z,95530.22
2022-08-12T05:31:47.780Z,95529.84
2022-08-12T05:34:34.591Z,95530.22
2022-08-12T05:37:23.630Z,95535.75
2022-08-12T05:40:13.387Z,95537.34
2022-08-12T05:42:59.494Z,95535.78
2022-08-12T05:45:56.111Z,95542.06
2022-08-12T05:48:42.703Z,95538.94
2022-08-12T05:51:41.082Z,95530.63
2022-08-12T05:54:47.703Z,95543.28
2022-08-12T05:57:34.086Z,95535.84
2022-08-12T06:00:25.944Z,95540.19
2022-08-12T06:03:12.291Z,95530.34
2022-08-12T06:05:58.543Z,95537.84
2022-08-12T06:08:48.173Z,95530.41
2022-08-12T06:11:34.370Z,95536.69
2022-08-12T06:14:22.661Z,95525.28
2022-08-12T06:17:09.582Z,95529.63
2022-08-12T06:20:27.468Z,95531.63
2022-08-12T06:23:03.184Z,95530.84
2022-08-12T06:25:51.095Z,95535.97
2022-08-12T06:28:40.419Z,95526.53
2022-08-12T06:31:27.446Z,95523.78
2022-08-12T06:35:23.055Z,95524.97
2022-08-12T06:37:20.634Z,95517.09
2022-08-12T06:40:12.805Z,95519.06
2022-08-12T06:42:58.961Z,95528.13
2022-08-12T06:45:49.570Z,95525.00
2022-08-12T06:48:37.460Z,95510.81
2022-08-12T06:51:24.353Z,95513.19
2022-08-12T06:54:11.530Z,95519.91
2022-08-12T06:58:07.049Z,95510.03
2022-08-12T07:00:05.224Z,95510.03
2022-08-12T07:02:51.026Z,95517.16
2022-08-12T07:05:36.817Z,95521.06
2022-08-12T07:08:25.603Z,95525.81
2022-08-12T07:11:13.438Z,95513.97
2022-08-12T07:14:13.120Z,95513.19
2022-08-12T07:17:07.655Z,95506.50
2022-08-12T07:19:59.253Z,95500.59
2022-08-12T07:22:50.139Z,95501.41
2022-08-12T07:25:40.990Z,95496.22
2022-08-12T07:28:31.713Z,95500.22
2022-08-12T07:31:18.717Z,95492.72
2022-08-12T07:34:05.920Z,95490.38
2022-08-12T07:36:52.697Z,95493.53
2022-08-12T07:39:51.270Z,95473.41
2022-08-12T07:42:45.101Z,95488.00
2022-08-12T07:45:31.556Z,95484.06
2022-08-12T07:48:18.351Z,95478.53
2022-08-12T07:51:05.177Z,95477.75
2022-08-12T07:54:00.140Z,95484.06
2022-08-12T07:56:56.339Z,95487.59
2022-08-12T07:59:42.419Z,95484.84
2022-08-12T08:02:28.562Z,95482.09
2022-08-12T08:05:15.585Z,95491.16
2022-08-12T08:08:02.528Z,95489.56
2022-08-12T08:10:50.717Z,95488.78
2022-08-12T08:13:39.206Z,95485.63
2022-08-12T08:16:25.439Z,95484.81
2022-08-12T08:19:23.958Z,95487.22
2022-08-12T08:22:10.665Z,95491.94
2022-08-12T08:24:58.716Z,95490.38
2022-08-12T08:27:48.007Z,95486.41
2022-08-12T08:30:37.617Z,95483.25
2022-08-12T08:34:09.460Z,95474.53
2022-08-12T08:36:40.162Z,95482.44
2022-08-12T08:39:28.404Z,95486.38
2022-08-12T08:46:09.418Z,95480.00
2022-08-12T08:48:59.489Z,95476.06
2022-08-12T08:51:45.487Z,95474.47
2022-08-12T08:54:33.568Z,95476.06
2022-08-12T08:57:21.747Z,95481.16
2022-08-12T09:00:08.060Z,95471.69
2022-08-12T09:02:59.076Z,95451.19
2022-08-12T09:06:02.176Z,95447.63
2022-08-12T09:08:50.171Z,95448.81
2022-08-12T09:12:10.571Z,95457.09
2022-08-12T09:14:58.679Z,95446.00
2022-08-12T09:17:57.321Z,95438.09
2022-08-12T09:20:50.908Z,95442.41
2022-08-12T09:26:48.265Z,95424.19
2022-08-12T09:30:09.703Z,95422.16
2022-08-12T09:33:04.317Z,95423.66
2022-08-12T09:36:12.067Z,95414.94
2022-08-12T09:40:02.155Z,95410.13
2022-08-12T09:42:42.683Z,95414.41
2022-08-12T09:46:07.014Z,95417.09
2022-08-12T09:49:42.011Z,95406.81
2022-08-12T09:52:32.050Z,95405.22
2022-08-12T09:55:59.706Z,95400.50
2022-08-12T09:58:59.221Z,95403.66
2022-08-12T10:02:44.048Z,95396.50
2022-08-12T10:04:52.013Z,95401.22
2022-08-12T10:07:40.330Z,95404.38
2022-08-12T10:10:30.179Z,95380.59
2022-08-12T10:13:41.964Z,95379.78
2022-08-12T10:16:36.791Z,95373.34
2022-08-12T10:19:36.650Z,95365.41
2022-08-12T10:22:47.095Z,95373.66
2022-08-12T10:26:34.466Z,95373.19
2022-08-12T10:30:37.472Z,95367.94
2022-08-12T10:32:44.687Z,95361.16
2022-08-12T10:35:38.328Z,95344.47
2022-08-12T10:38:34.508Z,95352.28
2022-08-12T10:41:58.464Z,95341.19
2022-08-12T10:44:46.926Z,95344.22
2022-08-12T10:48:20.297Z,95355.22
2022-08-12T10:50:56.171Z,95325.09
2022-08-12T10:53:47.554Z,95325.72
2022-08-12T10:56:35.467Z,95335.16
2022-08-12T11:00:03.789Z,95334.69
2022-08-12T11:04:26.953Z,95317.59
2022-08-12T11:07:02.442Z,95323.44
2022-08-12T11:08:47.151Z,95307.88
2022-08-12T11:12:35.747Z,95304.63
2022-08-12T11:14:49.719Z,95314.03
2022-08-12T11:17:52.188Z,95309.94
2022-08-12T11:20:40.469Z,95299.16
2022-08-12T11:23:36.870Z,95293.13
2022-08-12T11:26:23.952Z,95289.50
2022-08-12T11:29:22.092Z,95276.28
2022-08-12T11:32:09.039Z,95279.75
2022-08-12T11:34:55.469Z,95279.25
2022-08-12T11:37:59.060Z,95282.34
2022-08-12T11:40:46.781Z,95267.13
2022-08-12T11:43:33.042Z,95264.19
2022-08-12T11:46:38.182Z,95257.31
2022-08-12T11:49:31.059Z,95261.16
2022-08-12T11:52:51.370Z,95244.50
2022-08-12T11:55:27.557Z,95248.19
2022-08-12T11:59:02.955Z,95247.75
2022-08-12T12:02:02.458Z,95238.41
2022-08-12T12:04:29.465Z,95240.66
2022-08-12T12:07:15.519Z,95221.56
2022-08-12T12:10:02.269Z,95225.25
2022-08-12T12:12:49.646Z,95216.38
2022-08-12T12:15:40.915Z,95219.72
2022-08-12T12:18:31.551Z,95218.00
2022-08-12T12:21:17.742Z,95213.13
2022-08-12T12:24:26.604Z,95207.78
2022-08-12T12:27:13.397Z,95206.75
2022-08-12T12:30:19.553Z,95207.34
2022-08-12T12:33:18.010Z,95200.66
2022-08-12T12:36:18.269Z,95199.44
2022-08-12T12:39:10.438Z,95192.97
2022-08-12T12:42:43.904Z,95189.19
2022-08-12T12:45:19.017Z,95187.53
2022-08-12T12:48:15.490Z,95190.75
2022-08-12T12:51:22.141Z,95191.09
2022-08-12T12:54:28.889Z,95191.84
2022-08-12T12:57:15.393Z,95187.78
2022-08-12T13:00:16.657Z,95181.19
2022-08-12T13:03:03.796Z,95173.81
2022-08-12T13:05:53.968Z,95176.16
2022-08-12T13:08:40.359Z,95158.47
2022-08-12T13:11:41.306Z,95168.38
2022-08-12T13:14:35.142Z,95166.88
2022-08-12T13:17:21.459Z,95158.56
2022-08-12T13:20:07.919Z,95166.41
2022-08-12T13:22:53.900Z,95171.22
2022-08-12T13:25:41.680Z,95176.50
2022-08-12T13:28:31.099Z,95170.69
2022-08-12T13:31:17.325Z,95165.78
2022-08-12T13:34:32.052Z,95164.47
2022-08-12T13:37:11.957Z,95159.66
2022-08-12T13:39:58.047Z,95159.75
2022-08-12T13:42:45.071Z,95162.31
2022-08-12T13:45:32.478Z,95164.41
2022-08-12T13:48:19.843Z,95166.13
2022-08-12T13:51:06.112Z,95159.38
2022-08-12T13:53:57.787Z,95165.31
2022-08-12T13:56:51.571Z,95163.88
2022-08-12T13:59:48.120Z,95171.25
2022-08-12T14:02:34.781Z,95164.28
2022-08-12T14:05:30.157Z,95165.06
2022-08-12T14:08:24.275Z,95158.69
2022-08-12T14:11:12.422Z,95161.00
2022-08-12T14:14:03.630Z,95154.06
2022-08-12T14:16:58.310Z,95155.13
2022-08-12T14:20:05.082Z,95163.31
2022-08-12T14:22:51.883Z,95165.88
2022-08-12T14:25:43.447Z,95156.59
2022-08-12T14:28:32.492Z,95153.66
2022-08-12T14:31:19.291Z,95159.75
2022-08-12T14:34:07.351Z,95166.75
2022-08-12T14:36:53.536Z,95172.44
2022-08-12T14:39:40.341Z,95177.34
2022-08-12T14:42:33.466Z,95175.25
2022-08-12T14:45:22.813Z,95173.00
2022-08-12T14:48:09.706Z,95179.97
2022-08-12T14:52:10.774Z,95185.16
2022-08-12T14:58:00.491Z,95164.81
2022-08-12T15:00:47.629Z,95163.38
2022-08-12T15:03:58.033Z,95159.59
2022-08-12T15:06:52.559Z,95170.00
2022-08-12T15:09:39.418Z,95174.44
2022-08-12T15:12:25.531Z,95192.44
2022-08-12T15:15:16.243Z,95185.81
2022-08-12T15:18:02.519Z,95192.75
2022-08-12T15:20:50.661Z,95189.78
2022-08-12T15:23:55.084Z,95204.31
2022-08-12T15:26:42.397Z,95211.72
2022-08-12T15:29:28.884Z,95217.56
2022-08-12T15:32:15.983Z,95225.88
2022-08-12T15:35:02.368Z,95244.19
2022-08-12T15:38:09.628Z,95229.97
2022-08-12T15:40:59.101Z,95241.41
2022-08-12T15:44:15.900Z,95262.31
2022-08-12T15:46:55.008Z,95281.28
2022-08-12T15:50:00.483Z,95318.38
2022-08-12T15:52:47.566Z,95359.75
2022-08-12T15:55:35.834Z,95399.53
2022-08-12T15:58:25.446Z,95399.38
2022-08-12T16:01:15.484Z,95426.28
2022-08-12T16:04:01.322Z,95432.47
2022-08-12T16:07:06.160Z,95453.13
2022-08-12T16:10:05.466Z,95461.09
2022-08-12T16:12:57.959Z,95452.50
2022-08-12T16:16:01.544Z,95463.13
2022-08-12T16:18:49.949Z,95481.72
2022-08-12T16:21:52.274Z,95501.41
2022-08-12T16:24:44.678Z,95504.97
2022-08-12T16:27:38.620Z,95516.38
2022-08-12T16:30:31.397Z,95522.69
2022-08-12T16:33:19.673Z,95521.13
2022-08-12T16:36:11.388Z,95536.88
2022-08-12T16:38:57.701Z,95549.50
2022-08-12T16:41:48.260Z,95553.44
2022-08-12T16:44:36.305Z,95553.84
2022-08-12T16:47:23.702Z,95567.25
2022-08-12T16:50:14.507Z,95568.44
2022-08-12T16:53:03.437Z,95566.88
2022-08-12T16:55:52.004Z,95573.16
2022-08-12T16:58:39.577Z,95573.16
2022-08-12T17:01:32.092Z,95574.75
2022-08-12T17:04:19.535Z,95576.31
2022-08-12T17:07:17.068Z,95586.19
2022-08-12T17:10:03.345Z,95573.16
2022-08-12T17:12:49.168Z,95571.56
2022-08-12T17:15:56.768Z,95570.34
2022-08-12T17:18:57.692Z,95573.09
2022-08-12T17:22:01.166Z,95570.31
2022-08-12T17:24:55.932Z,95562.81
2022-08-12T17:27:47.651Z,95582.53
2022-08-12T17:30:57.331Z,95570.72
2022-08-12T17:33:50.477Z,95586.47
2022-08-12T17:36:43.312Z,95582.53
2022-08-12T17:40:15.866Z,95574.66
2022-08-12T17:42:52.497Z,95567.56
2022-08-12T17:45:43.017Z,95560.47
2022-08-12T17:48:38.877Z,95558.06
2022-08-12T17:51:31.466Z,95563.22
2022-08-12T17:54:24.180Z,95558.06
2022-08-12T17:57:16.635Z,95558.47
2022-08-12T18:00:04.532Z,95554.91
2022-08-12T18:02:51.611Z,95555.72
2022-08-12T18:05:55.852Z,95554.50
2022-08-12T18:08:59.138Z,95563.19
2022-08-12T18:15:26.911Z,95560.81
2022-08-12T18:18:33.142Z,95558.81
2022-08-12T18:21:19.296Z,95554.88
2022-08-12T18:24:05.497Z,95545.78
2022-08-12T18:27:28.144Z,95543.41
2022-08-12T18:30:29.881Z,95538.28
2022-08-12T18:33:19.789Z,95533.94
2022-08-12T18:36:13.291Z,95527.66
2022-08-12T18:39:05.146Z,95514.63
2022-08-12T18:41:52.406Z,95518.56
2022-08-12T18:44:39.360Z,95516.19
2022-08-12T18:47:49.955Z,95523.28
2022-08-12T18:50:49.432Z,95517.78
2022-08-12T18:54:06.506Z,95519.34
2022-08-12T18:56:56.087Z,95522.09
2022-08-12T19:00:01.334Z,95513.81
2022-08-12T19:03:05.709Z,95513.34
2022-08-12T19:06:15.943Z,95504.28
2022-08-12T19:09:04.782Z,95509.00
2022-08-12T19:12:23.194Z,95503.47
2022-08-12T19:15:43.077Z,95485.34
2022-08-12T19:18:31.345Z,95494.00
2022-08-12T19:21:20.476Z,95481.41
2022-08-12T19:24:26.164Z,95471.97
2022-08-12T19:27:12.744Z,95482.16
2022-08-12T19:30:06.804Z,95479.78
2022-08-12T19:32:56.301Z,95493.97
2022-08-12T19:36:24.027Z,95496.28
2022-08-12T19:38:56.792Z,95491.50
2022-08-12T19:42:00.549Z,95478.09
2022-08-12T19:44:51.888Z,95474.91
2022-08-12T19:47:39.352Z,95477.66
2022-08-12T19:50:25.251Z,95471.72
2022-08-12T19:53:13.395Z,95485.88
2022-08-12T19:56:06.073Z,95478.38
2022-08-12T19:59:20.831Z,95490.16
2022-08-12T20:02:13.189Z,95482.69
2022-08-12T20:06:05.292Z,95483.41
2022-08-12T20:08:12.491Z,95486.16
2022-08-12T20:12:09.715Z,95482.56
2022-08-12T20:14:23.114Z,95488.09
2022-08-12T20:17:12.914Z,95492.00
2022-08-12T20:20:17.206Z,95473.94
2022-08-12T20:23:37.096Z,95478.66
2022-08-12T20:26:37.539Z,95466.44
2022-08-12T20:29:26.338Z,95467.59
2022-08-12T20:32:29.708Z,95473.94
2022-08-12T20:36:06.080Z,95467.63
2022-08-12T20:38:40.062Z,95468.44
2022-08-12T20:41:26.559Z,95466.06
2022-08-12T20:44:18.289Z,95459.38
2022-08-12T20:47:18.776Z,95459.38
2022-08-12T20:50:19.304Z,95462.13
2022-08-12T20:53:14.033Z,95459.75
2022-08-12T20:56:30.704Z,95463.69
2022-08-12T20:59:19.725Z,95458.59
2022-08-12T21:02:06.327Z,95459.75
2022-08-12T21:05:16.598Z,95441.66
2022-08-12T21:08:07.320Z,95434.59
2022-08-12T21:11:47.775Z,95435.41
2022-08-12T21:14:39.673Z,95428.69
2022-08-12T21:18:00.591Z,95431.44
2022-08-12T21:21:24.086Z,95427.09
2022-08-12T21:24:32.318Z,95425.94
2022-08-12T21:27:20.069Z,95423.97
2022-08-12T21:30:06.828Z,95425.16
2022-08-12T21:32:53.009Z,95420.41
2022-08-12T21:35:40.051Z,95413.38
2022-08-12T21:38:34.756Z,95409.44
2022-08-12T21:41:21.400Z,95409.81
2022-08-12T21:44:32.483Z,95411.78
2022-08-12T21:47:22.308Z,95407.06
2022-08-12T21:50:09.114Z,95411.41
2022-08-12T21:52:55.859Z,95418.09
2022-08-12T21:55:41.946Z,95414.91
2022-08-12T21:58:28.863Z,95413.38
2022-08-12T22:01:22.628Z,95408.66
2022-08-12T22:04:27.686Z,95414.91
2022-08-12T22:07:13.901Z,95411.00
2022-08-12T22:10:05.882Z,95409.41
2022-08-12T22:12:58.592Z,95405.47
2022-08-12T22:15:52.736Z,95405.09
2022-08-12T22:18:44.399Z,95401.56
2022-08-12T22:21:38.063Z,95400.78
2022-08-12T22:24:35.281Z,95398.41
2022-08-12T22:27:32.343Z,95395.25
2022-08-12T22:30:38.320Z,95390.13
2022-08-12T22:33:24.914Z,95385.03
2022-08-12T22:36:11.217Z,95376.38
2022-08-12T22:38:59.030Z,95383.47
2022-08-12T22:42:03.759Z,95382.69
2022-08-12T22:45:16.257Z,95379.50
2022-08-12T22:48:02.780Z,95373.19
2022-08-12T22:50:48.598Z,95374.75
2022-08-12T22:53:36.714Z,95367.69
2022-08-12T22:56:31.039Z,95373.59
2022-08-12T22:59:17.542Z,95359.03
2022-08-12T23:02:07.882Z,95367.69
2022-08-12T23:04:58.528Z,95364.94
2022-08-12T23:08:00.016Z,95367.69
2022-08-12T23:10:47.115Z,95358.25
2022-08-12T23:13:55.062Z,95351.53
2022-08-12T23:16:42.805Z,95358.22
2022-08-12T23:19:38.069Z,95346.41
2022-08-12T23:22:35.981Z,95346.41
2022-08-12T23:25:32.522Z,95347.19
2022-08-12T23:28:58.193Z,95339.31
2022-08-12T23:32:03.549Z,95337.34
2022-08-12T23:34:50.597Z,95329.09
2022-08-12T23:37:47.312Z,95325.94
2022-08-12T23:40:40.262Z,95318.84
2022-08-12T23:43:26.768Z,95325.13
2022-08-12T23:46:27.229Z,95326.31
2022-08-12T23:49:27.118Z,95324.72
2022-08-12T23:52:19.412Z,95333.38
2022-08-12T23:55:24.915Z,95332.19
2022-08-12T23:58:23.063Z,95329.03
